Monocacy Station, Pennsylvania
Current Conditions -  °F | °C
As of 2:54 PM on Saturday 25 Oct 2014 (Local Time) from KPTW Reporting Station
Clear Clear  
Wind Chill: 67°   Ceiling: Unl
Heat Index: 67°   Visibility: 10mi
Dew Point: 43°   Wind: 10mph
Humidity: 42%   Direction: 270°W
Pressure: 29.76"   Gusts: 20mph
Location:  40.26°N, 75.76°W
Report Text: KPTW 251854Z AUTO 27009G17KT 240V310 10SM CLR 19/06 A2976 RMK AO2 SLP075 T01940061
Loading
Personal Weather Stations






























Interactive Weather Map
Tropical Storm Tracking
New forecast layout! Learn more

10-Day Weather Forecast

Advertisements
Track Severe Weather on mobile